This is the latest recevied weather packets stored in our database for station/object SQ3RAX-13. If no packets are shown the sender has not sent any weather packets the latest 10 day(s).
| Time | Temp. | Humidity | Pressure | Rain* | Wind** | Luminosity | Snow |
|---|---|---|---|---|---|---|---|
| 1777923367 | 17.78° C | 74% | 1012 hPa | 0 mm | - | - | - |
| 1777922767 | 18.33° C | 64% | 1012 hPa | 0 mm | - | - | - |
| 1777922167 | 19.44° C | 68% | 1012 hPa | 0 mm | - | - | - |
| 1777921567 | 19.44° C | 68% | 1012 hPa | 0 mm | - | - | - |
| 1777920967 | 19.44° C | 68% | 1012 hPa | 0 mm | - | - | - |
| 1777920367 | 19.44° C | 68% | 1012 hPa | 0 mm | - | - | - |
| 1777919767 | 20.56° C | 55% | 1011 hPa | 0 mm | - | - | - |
| 1777919167 | 20.56° C | 55% | 1011 hPa | 0 mm | - | - | - |
| 1777918567 | 21.11° C | 53% | 1011 hPa | 0 mm | - | - | - |
| 1777917967 | 21.11° C | 63% | 1011 hPa | 0 mm | - | - | - |
| 1777917367 | 21.11° C | 63% | 1011 hPa | 0 mm | - | - | - |
| 1777916767 | 21.11° C | 62% | 1011 hPa | 0 mm | - | - | - |
| 1777916167 | 21.67° C | 61% | 1012 hPa | 0 mm | - | - | - |
| 1777915567 | 22.78° C | 49% | 1011 hPa | 0 mm | - | - | - |
| 1777914967 | 22.78° C | 49% | 1011 hPa | 0 mm | - | - | - |
| 1777914367 | 22.78° C | 49% | 1011 hPa | 0 mm | - | - | - |
| 1777913767 | 22.78° C | 57% | 1011 hPa | 0 mm | - | - | - |
| 1777913167 | 22.78° C | 57% | 1011 hPa | 0 mm | - | - | - |
| 1777912567 | 22.78° C | 57% | 1011 hPa | 0 mm | - | - | - |
| 1777911967 | 23.89° C | 47% | 1011 hPa | 0 mm | - | - | - |
| 1777911367 | 23.89° C | 47% | 1011 hPa | 0 mm | - | - | - |
| 1777910767 | 23.89° C | 47% | 1011 hPa | 0 mm | - | - | - |
| 1777910167 | 23.89° C | 53% | 1011 hPa | 0 mm | - | - | - |
| 1777909567 | 23.89° C | 53% | 1011 hPa | 0 mm | - | - | - |
| 1777908967 | 23.89° C | 53% | 1011 hPa | 0 mm | - | - | - |
* Rain latest hour (hover to see other rain measurements)
** Current wind speed in m/s (hover to see current wind gust speed)